Falls Church, VA

2:12 PM EDT on August 31, 2015 (GMT -0400)
Falls Church-Westwood Park | | Change Station
CLOSE
Current Station
Personal Weather Station
Location: Falls Church, VA
Elevation: 479 ft
Nearby Weather Stations

Elev 479 ft 38.89 °N, 77.20 °W | Updated 3 seconds ago

Partly Cloudy
Partly Cloudy
81.5 °F
Feels Like 85 °F
N
1.0
Wind Variable Wind from South
Gusts 3.0 mph

Today
High -- | Low -- °F
--% Chance of Precip.
Yesterday
High -- | Low -- °F
Precip. -- in
6:36 AM 7:41 PM
Waning Gibbous, 94% visible
Pressure 30.09 in
Visibility 10.0 miles
Clouds Few 5500 ft
Scattered Clouds 16000 ft
Overcast 23000 ft
Heat Index 85 °F
Dew Point 70 °F
Humidity 69%
Rainfall 0.00 in
Snow Depth Not available.
UV 3 out of 12
Pollen 10.30 out of 12
Air Quality Not available.
Flu Activity Not available.
METAR KDCA 311752Z 17011KT 10SM FEW055 SCT160 OVC230 29/21 A3008 RMK AO2 SLP187 T02890211 10289 20244 58009
Pressure 30.09 in
Visibility 10.0 miles
Clouds Few 5500 ft
Scattered Clouds 16000 ft
Overcast 23000 ft
Heat Index 85 °F
Dew Point 70 °F
Humidity 69%
Rainfall 0.00 in
Snow Depth Not available.
UV 3 out of 12
Pollen 10.30 out of 12
Air Quality Not available.
Flu Activity Not available.
METAR KDCA 311752Z 17011KT 10SM FEW055 SCT160 OVC230 29/21 A3008 RMK AO2 SLP187 T02890211 10289 20244 58009

10-Day Weather Forecast

×

Almanac

Astronomy

Aug. 31, 2015 Rise Set
Actual Time
Civil Twilight
Nautical Twilight
Astronomical Twilight
Moon
Length of Visible Light
Length of Day
Tomorrow will be .
, % of the Moon is Illuminated

Today's Extremes

State Highs State Lows

Community

WunderPhotos

Upload Photos

1,851,327 photos uploaded!

WunderBlogs® & News

Nearby

Air Quality

  Air Quality AQ Index Pollutant
Not available.

Snow Depth

Station Depth Elevation

Earthquake Activity

City Distance Mag. Time & Date
Minimum magnitude displayed is 2.5.

Coastal Water Temperatures

Place Temperature

Stations

Nearby Weather Stations

Station Location Temp. Windchill Dew Point Humidity Wind Precip. Elev Updated Type